Lake Park, FL (33403)

11:39 PM EDT on July 03, 2015 (GMT -0400)
Rybovich Boat Company | | Change Station
CLOSE
Current Station
Personal Weather Station
Location: West Palm Beach, FL
Elevation: 10 ft
Nearby Weather Stations

Elev 10 ft 26.75 °N, 80.05 °W | Updated 1 second ago

Mostly Cloudy
Mostly Cloudy
83.2 °F
Feels Like 92 °F
N
4.0
Wind Variable Wind from SSE
Gusts 6.0 mph

Today
High -- | Low -- °F
--% Chance of Precip.
Yesterday
High -- | Low -- °F
Precip. -- in
6:30 AM 8:18 PM
Waning Gibbous, 94% visible
Pressure 30.13 in
Visibility 10.0 miles
Clouds Few 2100 ft
Scattered Clouds 4000 ft
Mostly Cloudy 25000 ft
Heat Index 92 °F
Dew Point 77 °F
Humidity 82%
Rainfall 0.00 in
Snow Depth Not available.
UV 0 out of 12
Pollen 4.40 out of 12
Air Quality Not available.
Flu Activity Not available.
SPECI KPBI 040334Z 11005KT 10SM TS FEW021CB SCT040 BKN250 28/24 A3013 RMK AO2 TSB31 FRQ LTGCCIC SE-SW TS SE-SW MOV N T02830244 $

More Conditions Fewer Conditions

Pressure 30.13 in
Visibility 10.0 miles
Clouds Few 2100 ft
Scattered Clouds 4000 ft
Mostly Cloudy 25000 ft
Heat Index 92 °F
Dew Point 77 °F
Humidity 82%
Rainfall 0.00 in
Snow Depth Not available.
UV 0 out of 12
Pollen 4.40 out of 12
Air Quality Not available.
Flu Activity Not available.
SPECI KPBI 040334Z 11005KT 10SM TS FEW021CB SCT040 BKN250 28/24 A3013 RMK AO2 TSB31 FRQ LTGCCIC SE-SW TS SE-SW MOV N T02830244 $

More Conditions Fewer Conditions

Nowcast | as of 11:39 PM EDT on July 3, 2015

At 1138 PM EDT...Doppler radar indicated a line of thunderstorms... along a line extending from Lake Worth to near Highland Beach to near Coconut Creek moving west at 10 mph. Frequent cloud to ground lightning...torrential downpours...and wind gusts to 35 mph will accompany these thunderstorms. Locations impacted include... Fort Lauderdale...Coral Springs...West Palm Beach...Pompano Beach... Plantation...sunrise...Boca Raton...Deerfield Beach...Boynton Beach...and Delray Beach.

×

10-Day Weather Forecast

×

Almanac

Astronomy

Jul. 03, 2015 Rise Set
Actual Time
Civil Twilight
Nautical Twilight
Astronomical Twilight
Moon
Length of Visible Light
Length of Day
Tomorrow will be .
, % of the Moon is Illuminated

Today's Extremes

State Highs State Lows

Community

WunderPhotos

Upload Photos

1,834,911 photos uploaded!

WunderBlogs® & News

Nearby

Air Quality

  Air Quality AQ Index Pollutant
Not available.

Snow Depth

Station Depth Elevation

Earthquake Activity

City Distance Mag. Time & Date
Minimum magnitude displayed is 2.5.

Coastal Water Temperatures

Place Temperature

Stations

Nearby Weather Stations

Station Location Temp. Windchill Dew Point Humidity Wind Precip. Elev Updated Type